sensor_id;sensor_type;location;lat;lon;timestamp;P1;durP1;ratioP1;P2;durP2;ratioP2
76136;SDS011;68622;53.128;17.966;2023-05-13T00:01:14;20.80;;;10.10;;
76136;SDS011;68622;53.128;17.966;2023-05-13T00:03:41;19.40;;;9.30;;
76136;SDS011;68622;53.128;17.966;2023-05-13T00:06:08;22.60;;;9.30;;
76136;SDS011;68622;53.128;17.966;2023-05-13T00:08:35;19.60;;;9.10;;
76136;SDS011;68622;53.128;17.966;2023-05-13T00:11:02;19.10;;;9.10;;
76136;SDS011;68622;53.128;17.966;2023-05-13T00:13:28;17.20;;;9.20;;
76136;SDS011;68622;53.128;17.966;2023-05-13T00:15:55;20.50;;;9.20;;
76136;SDS011;68622;53.128;17.966;2023-05-13T00:18:22;20.50;;;9.30;;
76136;SDS011;68622;53.128;17.966;2023-05-13T00:20:48;21.80;;;9.30;;
76136;SDS011;68622;53.128;17.966;2023-05-13T00:23:15;18.50;;;8.60;;
76136;SDS011;68622;53.128;17.966;2023-05-13T00:25:41;18.30;;;8.70;;
76136;SDS011;68622;53.128;17.966;2023-05-13T00:28:10;20.90;;;10.30;;
76136;SDS011;68622;53.128;17.966;2023-05-13T00:30:42;19.40;;;8.70;;
76136;SDS011;68622;53.128;17.966;2023-05-13T00:33:10;17.30;;;10.10;;
76136;SDS011;68622;53.128;17.966;2023-05-13T00:35:37;21.00;;;9.90;;
76136;SDS011;68622;53.128;17.966;2023-05-13T00:38:04;20.20;;;9.30;;
76136;SDS011;68622;53.128;17.966;2023-05-13T00:40:30;18.70;;;9.80;;
76136;SDS011;68622;53.128;17.966;2023-05-13T00:42:59;23.90;;;9.60;;
76136;SDS011;68622;53.128;17.966;2023-05-13T00:45:25;20.30;;;9.30;;
76136;SDS011;68622;53.128;17.966;2023-05-13T00:47:52;20.00;;;9.10;;
76136;SDS011;68622;53.128;17.966;2023-05-13T00:50:19;17.80;;;9.50;;
76136;SDS011;68622;53.128;17.966;2023-05-13T00:52:46;18.60;;;9.60;;
76136;SDS011;68622;53.128;17.966;2023-05-13T00:55:14;17.10;;;9.30;;
76136;SDS011;68622;53.128;17.966;2023-05-13T00:57:41;17.80;;;9.50;;
76136;SDS011;68622;53.128;17.966;2023-05-13T01:00:08;18.80;;;9.30;;
76136;SDS011;68622;53.128;17.966;2023-05-13T01:08:28;16.00;;;9.10;;
76136;SDS011;68622;53.128;17.966;2023-05-13T01:10:58;20.10;;;9.00;;
76136;SDS011;68622;53.128;17.966;2023-05-13T01:13:32;17.80;;;8.00;;
76136;SDS011;68622;53.128;17.966;2023-05-13T01:16:25;13.90;;;7.60;;
76136;SDS011;68622;53.128;17.966;2023-05-13T01:19:28;19.20;;;7.80;;
76136;SDS011;68622;53.128;17.966;2023-05-13T01:22:07;15.50;;;7.50;;
76136;SDS011;68622;53.128;17.966;2023-05-13T01:24:34;14.40;;;7.80;;
76136;SDS011;68622;53.128;17.966;2023-05-13T01:27:01;18.40;;;8.20;;
76136;SDS011;68622;53.128;17.966;2023-05-13T01:29:28;16.50;;;8.10;;
76136;SDS011;68622;53.128;17.966;2023-05-13T01:31:56;14.90;;;7.20;;
76136;SDS011;68622;53.128;17.966;2023-05-13T01:34:25;15.00;;;7.10;;
76136;SDS011;68622;53.128;17.966;2023-05-13T01:36:54;14.30;;;7.50;;
76136;SDS011;68622;53.128;17.966;2023-05-13T01:39:22;17.20;;;7.30;;
76136;SDS011;68622;53.128;17.966;2023-05-13T01:41:51;13.60;;;6.70;;
76136;SDS011;68622;53.128;17.966;2023-05-13T01:44:18;14.70;;;7.30;;
76136;SDS011;68622;53.128;17.966;2023-05-13T01:46:45;14.70;;;7.10;;
76136;SDS011;68622;53.128;17.966;2023-05-13T01:49:12;14.20;;;6.90;;
76136;SDS011;68622;53.128;17.966;2023-05-13T01:51:39;15.20;;;7.60;;
76136;SDS011;68622;53.128;17.966;2023-05-13T01:54:06;15.10;;;7.70;;
76136;SDS011;68622;53.128;17.966;2023-05-13T01:56:34;16.30;;;7.90;;
76136;SDS011;68622;53.128;17.966;2023-05-13T01:59:02;15.60;;;7.70;;
76136;SDS011;68622;53.128;17.966;2023-05-13T02:01:29;13.60;;;7.70;;
76136;SDS011;68622;53.128;17.966;2023-05-13T02:03:56;26.00;;;8.90;;
76136;SDS011;68622;53.128;17.966;2023-05-13T02:06:25;16.10;;;7.80;;
76136;SDS011;68622;53.128;17.966;2023-05-13T02:08:53;17.40;;;7.70;;
76136;SDS011;68622;53.128;17.966;2023-05-13T02:11:20;16.30;;;7.20;;
76136;SDS011;68622;53.128;17.966;2023-05-13T02:13:48;17.80;;;8.60;;
76136;SDS011;68622;53.128;17.966;2023-05-13T02:16:18;13.70;;;7.50;;
76136;SDS011;68622;53.128;17.966;2023-05-13T02:18:45;19.90;;;7.30;;
76136;SDS011;68622;53.128;17.966;2023-05-13T02:21:13;15.00;;;7.90;;
76136;SDS011;68622;53.128;17.966;2023-05-13T02:23:39;17.20;;;8.00;;
76136;SDS011;68622;53.128;17.966;2023-05-13T02:26:06;16.50;;;7.50;;
76136;SDS011;68622;53.128;17.966;2023-05-13T02:28:32;17.30;;;8.30;;
76136;SDS011;68622;53.128;17.966;2023-05-13T02:30:59;19.70;;;8.80;;
76136;SDS011;68622;53.128;17.966;2023-05-13T02:33:26;14.20;;;8.20;;
76136;SDS011;68622;53.128;17.966;2023-05-13T02:35:52;20.40;;;9.40;;
76136;SDS011;68622;53.128;17.966;2023-05-13T02:38:19;19.20;;;10.20;;
76136;SDS011;68622;53.128;17.966;2023-05-13T02:40:46;18.10;;;8.60;;
76136;SDS011;68622;53.128;17.966;2023-05-13T02:43:13;16.10;;;7.50;;
76136;SDS011;68622;53.128;17.966;2023-05-13T02:45:45;16.30;;;8.40;;
76136;SDS011;68622;53.128;17.966;2023-05-13T02:48:12;17.30;;;7.80;;
76136;SDS011;68622;53.128;17.966;2023-05-13T02:50:39;15.10;;;7.80;;
76136;SDS011;68622;53.128;17.966;2023-05-13T02:53:06;16.20;;;8.10;;
76136;SDS011;68622;53.128;17.966;2023-05-13T02:55:48;16.00;;;7.30;;
76136;SDS011;68622;53.128;17.966;2023-05-13T02:58:15;19.80;;;7.50;;
76136;SDS011;68622;53.128;17.966;2023-05-13T03:00:42;14.20;;;8.30;;
76136;SDS011;68622;53.128;17.966;2023-05-13T03:03:08;31.00;;;9.20;;
76136;SDS011;68622;53.128;17.966;2023-05-13T03:05:35;15.70;;;8.20;;
76136;SDS011;68622;53.128;17.966;2023-05-13T03:08:02;18.70;;;8.10;;
76136;SDS011;68622;53.128;17.966;2023-05-13T03:10:28;21.50;;;8.80;;
76136;SDS011;68622;53.128;17.966;2023-05-13T03:12:55;13.50;;;7.20;;
76136;SDS011;68622;53.128;17.966;2023-05-13T03:15:22;19.40;;;7.70;;
76136;SDS011;68622;53.128;17.966;2023-05-13T03:17:48;15.40;;;7.80;;
76136;SDS011;68622;53.128;17.966;2023-05-13T03:20:15;18.90;;;8.30;;
76136;SDS011;68622;53.128;17.966;2023-05-13T03:22:42;13.40;;;7.60;;
76136;SDS011;68622;53.128;17.966;2023-05-13T03:25:10;15.10;;;7.50;;
76136;SDS011;68622;53.128;17.966;2023-05-13T03:27:44;17.50;;;8.10;;
76136;SDS011;68622;53.128;17.966;2023-05-13T03:30:11;18.90;;;8.00;;
76136;SDS011;68622;53.128;17.966;2023-05-13T03:32:50;19.40;;;8.00;;
76136;SDS011;68622;53.128;17.966;2023-05-13T03:35:17;17.80;;;9.10;;
76136;SDS011;68622;53.128;17.966;2023-05-13T03:37:44;21.90;;;9.10;;
76136;SDS011;68622;53.128;17.966;2023-05-13T03:40:11;22.00;;;9.20;;
76136;SDS011;68622;53.128;17.966;2023-05-13T03:42:38;18.70;;;9.10;;
76136;SDS011;68622;53.128;17.966;2023-05-13T03:45:05;16.80;;;9.00;;
76136;SDS011;68622;53.128;17.966;2023-05-13T03:47:32;17.50;;;8.20;;
76136;SDS011;68622;53.128;17.966;2023-05-13T03:50:01;17.20;;;9.10;;
76136;SDS011;68622;53.128;17.966;2023-05-13T03:52:32;14.60;;;7.70;;
76136;SDS011;68622;53.128;17.966;2023-05-13T03:54:58;21.60;;;9.30;;
76136;SDS011;68622;53.128;17.966;2023-05-13T03:57:26;14.90;;;8.30;;
76136;SDS011;68622;53.128;17.966;2023-05-13T03:59:52;15.70;;;8.10;;
76136;SDS011;68622;53.128;17.966;2023-05-13T04:02:19;18.20;;;8.30;;
76136;SDS011;68622;53.128;17.966;2023-05-13T04:04:47;15.60;;;8.40;;
76136;SDS011;68622;53.128;17.966;2023-05-13T04:07:13;18.10;;;9.30;;
76136;SDS011;68622;53.128;17.966;2023-05-13T04:09:40;17.70;;;8.60;;
76136;SDS011;68622;53.128;17.966;2023-05-13T04:12:07;16.00;;;7.90;;
76136;SDS011;68622;53.128;17.966;2023-05-13T04:14:34;19.90;;;8.10;;
76136;SDS011;68622;53.128;17.966;2023-05-13T04:17:02;17.20;;;7.40;;
76136;SDS011;68622;53.128;17.966;2023-05-13T04:19:29;14.20;;;7.70;;
76136;SDS011;68622;53.128;17.966;2023-05-13T04:21:56;16.30;;;7.90;;
76136;SDS011;68622;53.128;17.966;2023-05-13T04:24:23;20.00;;;8.00;;
76136;SDS011;68622;53.128;17.966;2023-05-13T04:26:49;17.70;;;7.90;;
76136;SDS011;68622;53.128;17.966;2023-05-13T04:29:17;16.60;;;7.40;;
76136;SDS011;68622;53.128;17.966;2023-05-13T04:31:44;15.20;;;7.70;;
76136;SDS011;68622;53.128;17.966;2023-05-13T04:34:12;15.10;;;7.70;;
76136;SDS011;68622;53.128;17.966;2023-05-13T04:36:39;18.60;;;8.20;;
76136;SDS011;68622;53.128;17.966;2023-05-13T04:39:05;19.00;;;8.30;;
76136;SDS011;68622;53.128;17.966;2023-05-13T04:41:32;19.00;;;8.30;;
76136;SDS011;68622;53.128;17.966;2023-05-13T04:43:59;17.90;;;7.80;;
76136;SDS011;68622;53.128;17.966;2023-05-13T04:46:26;16.00;;;7.40;;
76136;SDS011;68622;53.128;17.966;2023-05-13T04:48:52;19.70;;;9.20;;
76136;SDS011;68622;53.128;17.966;2023-05-13T04:51:19;18.60;;;8.70;;
76136;SDS011;68622;53.128;17.966;2023-05-13T04:53:46;16.80;;;8.50;;
76136;SDS011;68622;53.128;17.966;2023-05-13T04:56:13;18.10;;;8.10;;
76136;SDS011;68622;53.128;17.966;2023-05-13T04:58:39;18.10;;;8.00;;
76136;SDS011;68622;53.128;17.966;2023-05-13T05:01:07;15.50;;;7.40;;
76136;SDS011;68622;53.128;17.966;2023-05-13T05:03:34;20.80;;;9.00;;
76136;SDS011;68622;53.128;17.966;2023-05-13T05:06:01;14.80;;;7.90;;
76136;SDS011;68622;53.128;17.966;2023-05-13T05:08:28;17.20;;;7.30;;
76136;SDS011;68622;53.128;17.966;2023-05-13T05:10:56;17.30;;;8.10;;
76136;SDS011;68622;53.128;17.966;2023-05-13T05:13:23;16.20;;;7.20;;
76136;SDS011;68622;53.128;17.966;2023-05-13T05:15:49;16.50;;;7.70;;
76136;SDS011;68622;53.128;17.966;2023-05-13T05:18:16;12.60;;;7.00;;
76136;SDS011;68622;53.128;17.966;2023-05-13T05:20:45;19.70;;;8.10;;
76136;SDS011;68622;53.128;17.966;2023-05-13T05:23:15;14.20;;;6.90;;
76136;SDS011;68622;53.128;17.966;2023-05-13T05:25:42;13.80;;;7.80;;
76136;SDS011;68622;53.128;17.966;2023-05-13T05:28:08;12.70;;;7.20;;
76136;SDS011;68622;53.128;17.966;2023-05-13T05:30:37;15.70;;;7.70;;
76136;SDS011;68622;53.128;17.966;2023-05-13T05:33:11;12.10;;;7.00;;
76136;SDS011;68622;53.128;17.966;2023-05-13T05:35:39;13.30;;;7.60;;
76136;SDS011;68622;53.128;17.966;2023-05-13T05:38:09;14.70;;;8.10;;
76136;SDS011;68622;53.128;17.966;2023-05-13T05:40:40;14.00;;;7.80;;
76136;SDS011;68622;53.128;17.966;2023-05-13T05:43:09;14.80;;;7.10;;
76136;SDS011;68622;53.128;17.966;2023-05-13T05:45:37;13.40;;;7.10;;
76136;SDS011;68622;53.128;17.966;2023-05-13T05:48:05;19.70;;;7.70;;
76136;SDS011;68622;53.128;17.966;2023-05-13T05:50:32;15.60;;;7.30;;
76136;SDS011;68622;53.128;17.966;2023-05-13T05:53:01;13.90;;;7.00;;
76136;SDS011;68622;53.128;17.966;2023-05-13T05:55:33;13.50;;;7.30;;
76136;SDS011;68622;53.128;17.966;2023-05-13T05:58:01;14.60;;;6.50;;
76136;SDS011;68622;53.128;17.966;2023-05-13T06:00:31;13.60;;;6.70;;
76136;SDS011;68622;53.128;17.966;2023-05-13T06:02:58;12.50;;;6.80;;
76136;SDS011;68622;53.128;17.966;2023-05-13T06:05:25;11.20;;;6.60;;
76136;SDS011;68622;53.128;17.966;2023-05-13T06:07:52;14.40;;;6.10;;
76136;SDS011;68622;53.128;17.966;2023-05-13T06:10:19;12.60;;;5.90;;
76136;SDS011;68622;53.128;17.966;2023-05-13T06:12:46;15.00;;;6.90;;
76136;SDS011;68622;53.128;17.966;2023-05-13T06:15:13;12.10;;;6.10;;
76136;SDS011;68622;53.128;17.966;2023-05-13T06:17:39;13.30;;;6.10;;
76136;SDS011;68622;53.128;17.966;2023-05-13T06:20:08;11.60;;;6.00;;
76136;SDS011;68622;53.128;17.966;2023-05-13T06:22:35;12.30;;;6.00;;
76136;SDS011;68622;53.128;17.966;2023-05-13T06:25:02;14.20;;;7.10;;
76136;SDS011;68622;53.128;17.966;2023-05-13T06:27:28;14.40;;;6.70;;
76136;SDS011;68622;53.128;17.966;2023-05-13T06:29:55;14.50;;;5.90;;
76136;SDS011;68622;53.128;17.966;2023-05-13T06:32:21;10.90;;;5.80;;
76136;SDS011;68622;53.128;17.966;2023-05-13T06:34:48;12.40;;;6.00;;
76136;SDS011;68622;53.128;17.966;2023-05-13T06:37:17;12.20;;;6.20;;
76136;SDS011;68622;53.128;17.966;2023-05-13T06:39:44;12.80;;;5.90;;
76136;SDS011;68622;53.128;17.966;2023-05-13T06:42:11;10.90;;;6.40;;
76136;SDS011;68622;53.128;17.966;2023-05-13T06:44:43;12.90;;;6.20;;
76136;SDS011;68622;53.128;17.966;2023-05-13T06:47:11;15.80;;;6.60;;
76136;SDS011;68622;53.128;17.966;2023-05-13T06:49:41;11.00;;;6.70;;
76136;SDS011;68622;53.128;17.966;2023-05-13T06:52:08;12.80;;;7.10;;
76136;SDS011;68622;53.128;17.966;2023-05-13T06:54:36;10.40;;;7.00;;
76136;SDS011;68622;53.128;17.966;2023-05-13T06:57:03;10.00;;;5.70;;
76136;SDS011;68622;53.128;17.966;2023-05-13T06:59:32;13.10;;;7.10;;
76136;SDS011;68622;53.128;17.966;2023-05-13T07:01:59;12.40;;;7.20;;
76136;SDS011;68622;53.128;17.966;2023-05-13T07:04:25;15.30;;;7.40;;
76136;SDS011;68622;53.128;17.966;2023-05-13T07:06:55;15.70;;;7.10;;
76136;SDS011;68622;53.128;17.966;2023-05-13T07:09:22;12.10;;;6.70;;
76136;SDS011;68622;53.128;17.966;2023-05-13T07:11:49;12.70;;;7.10;;
76136;SDS011;68622;53.128;17.966;2023-05-13T07:14:15;11.90;;;6.00;;
76136;SDS011;68622;53.128;17.966;2023-05-13T07:16:42;12.90;;;6.30;;
76136;SDS011;68622;53.128;17.966;2023-05-13T07:19:09;15.60;;;6.80;;
76136;SDS011;68622;53.128;17.966;2023-05-13T07:21:36;14.10;;;6.40;;
76136;SDS011;68622;53.128;17.966;2023-05-13T07:24:03;12.30;;;6.70;;
76136;SDS011;68622;53.128;17.966;2023-05-13T07:26:30;13.60;;;6.90;;
76136;SDS011;68622;53.128;17.966;2023-05-13T07:28:58;11.30;;;6.70;;
76136;SDS011;68622;53.128;17.966;2023-05-13T07:31:25;12.50;;;6.30;;
76136;SDS011;68622;53.128;17.966;2023-05-13T07:33:51;13.50;;;6.50;;
76136;SDS011;68622;53.128;17.966;2023-05-13T07:36:18;9.70;;;5.60;;
76136;SDS011;68622;53.128;17.966;2023-05-13T07:38:45;13.50;;;5.90;;
76136;SDS011;68622;53.128;17.966;2023-05-13T07:41:11;12.80;;;6.20;;
76136;SDS011;68622;53.128;17.966;2023-05-13T07:43:38;11.90;;;5.40;;
76136;SDS011;68622;53.128;17.966;2023-05-13T07:46:06;11.60;;;4.90;;
76136;SDS011;68622;53.128;17.966;2023-05-13T07:48:32;12.50;;;5.50;;
76136;SDS011;68622;53.128;17.966;2023-05-13T07:50:59;12.80;;;5.50;;
76136;SDS011;68622;53.128;17.966;2023-05-13T07:53:26;9.30;;;4.40;;
76136;SDS011;68622;53.128;17.966;2023-05-13T07:55:53;7.70;;;4.20;;
76136;SDS011;68622;53.128;17.966;2023-05-13T07:58:19;9.40;;;4.20;;
76136;SDS011;68622;53.128;17.966;2023-05-13T08:00:46;9.20;;;4.20;;
76136;SDS011;68622;53.128;17.966;2023-05-13T08:03:14;13.10;;;4.90;;
76136;SDS011;68622;53.128;17.966;2023-05-13T08:05:42;11.00;;;5.00;;
76136;SDS011;68622;53.128;17.966;2023-05-13T08:08:09;9.30;;;4.90;;
76136;SDS011;68622;53.128;17.966;2023-05-13T08:10:37;8.50;;;4.40;;
76136;SDS011;68622;53.128;17.966;2023-05-13T08:13:03;10.30;;;4.60;;
76136;SDS011;68622;53.128;17.966;2023-05-13T08:15:30;9.30;;;4.50;;
76136;SDS011;68622;53.128;17.966;2023-05-13T08:17:56;9.50;;;4.30;;
76136;SDS011;68622;53.128;17.966;2023-05-13T08:20:23;10.60;;;4.10;;
76136;SDS011;68622;53.128;17.966;2023-05-13T08:22:55;14.20;;;4.50;;
76136;SDS011;68622;53.128;17.966;2023-05-13T08:25:23;10.10;;;4.60;;
76136;SDS011;68622;53.128;17.966;2023-05-13T08:27:50;11.40;;;4.60;;
76136;SDS011;68622;53.128;17.966;2023-05-13T08:30:17;11.20;;;4.70;;
76136;SDS011;68622;53.128;17.966;2023-05-13T08:32:43;10.20;;;4.40;;
76136;SDS011;68622;53.128;17.966;2023-05-13T08:35:10;10.60;;;4.30;;
76136;SDS011;68622;53.128;17.966;2023-05-13T08:37:37;10.20;;;4.20;;
76136;SDS011;68622;53.128;17.966;2023-05-13T08:40:04;9.10;;;4.20;;
76136;SDS011;68622;53.128;17.966;2023-05-13T08:42:31;9.80;;;4.50;;
76136;SDS011;68622;53.128;17.966;2023-05-13T08:45:00;9.00;;;4.30;;
76136;SDS011;68622;53.128;17.966;2023-05-13T08:50:42;9.40;;;4.30;;
76136;SDS011;68622;53.128;17.966;2023-05-13T08:53:10;10.20;;;4.10;;
76136;SDS011;68622;53.128;17.966;2023-05-13T08:55:38;7.70;;;4.30;;
76136;SDS011;68622;53.128;17.966;2023-05-13T08:58:05;9.90;;;4.10;;
76136;SDS011;68622;53.128;17.966;2023-05-13T09:00:33;7.70;;;3.70;;
76136;SDS011;68622;53.128;17.966;2023-05-13T09:03:00;12.50;;;4.20;;
76136;SDS011;68622;53.128;17.966;2023-05-13T09:05:27;9.00;;;3.70;;
76136;SDS011;68622;53.128;17.966;2023-05-13T09:07:54;11.30;;;4.20;;
76136;SDS011;68622;53.128;17.966;2023-05-13T09:10:20;12.00;;;3.90;;
76136;SDS011;68622;53.128;17.966;2023-05-13T09:12:48;10.00;;;4.20;;
76136;SDS011;68622;53.128;17.966;2023-05-13T09:15:16;10.90;;;4.10;;
76136;SDS011;68622;53.128;17.966;2023-05-13T09:17:47;7.60;;;3.30;;
76136;SDS011;68622;53.128;17.966;2023-05-13T09:20:18;7.70;;;3.50;;
76136;SDS011;68622;53.128;17.966;2023-05-13T09:22:46;12.20;;;4.30;;
76136;SDS011;68622;53.128;17.966;2023-05-13T09:25:16;7.70;;;4.80;;
76136;SDS011;68622;53.128;17.966;2023-05-13T09:27:45;8.90;;;3.50;;
76136;SDS011;68622;53.128;17.966;2023-05-13T09:30:18;10.30;;;4.60;;
76136;SDS011;68622;53.128;17.966;2023-05-13T09:33:03;8.00;;;3.70;;
76136;SDS011;68622;53.128;17.966;2023-05-13T09:35:38;7.90;;;3.50;;
76136;SDS011;68622;53.128;17.966;2023-05-13T09:43:27;11.70;;;4.10;;
76136;SDS011;68622;53.128;17.966;2023-05-13T09:46:01;9.30;;;3.50;;
76136;SDS011;68622;53.128;17.966;2023-05-13T09:48:30;8.40;;;3.50;;
76136;SDS011;68622;53.128;17.966;2023-05-13T09:50:58;15.30;;;3.90;;
76136;SDS011;68622;53.128;17.966;2023-05-13T09:53:25;10.80;;;5.60;;
76136;SDS011;68622;53.128;17.966;2023-05-13T09:55:54;12.90;;;7.10;;
76136;SDS011;68622;53.128;17.966;2023-05-13T09:58:22;13.20;;;5.80;;
76136;SDS011;68622;53.128;17.966;2023-05-13T10:00:51;11.70;;;7.00;;
76136;SDS011;68622;53.128;17.966;2023-05-13T10:03:17;7.00;;;3.70;;
76136;SDS011;68622;53.128;17.966;2023-05-13T10:05:44;7.60;;;3.60;;
76136;SDS011;68622;53.128;17.966;2023-05-13T10:08:12;8.20;;;3.60;;
76136;SDS011;68622;53.128;17.966;2023-05-13T10:10:40;8.30;;;3.50;;
76136;SDS011;68622;53.128;17.966;2023-05-13T10:13:08;7.70;;;3.60;;
76136;SDS011;68622;53.128;17.966;2023-05-13T10:15:39;8.40;;;3.20;;
76136;SDS011;68622;53.128;17.966;2023-05-13T10:18:13;8.40;;;3.30;;
76136;SDS011;68622;53.128;17.966;2023-05-13T10:20:41;10.50;;;3.70;;
76136;SDS011;68622;53.128;17.966;2023-05-13T10:23:09;6.60;;;3.20;;
76136;SDS011;68622;53.128;17.966;2023-05-13T10:25:37;9.20;;;2.90;;
76136;SDS011;68622;53.128;17.966;2023-05-13T10:28:04;7.10;;;3.20;;
76136;SDS011;68622;53.128;17.966;2023-05-13T10:30:31;6.60;;;3.20;;
76136;SDS011;68622;53.128;17.966;2023-05-13T10:32:58;8.60;;;3.70;;
76136;SDS011;68622;53.128;17.966;2023-05-13T10:35:31;7.70;;;4.10;;
76136;SDS011;68622;53.128;17.966;2023-05-13T10:38:08;7.90;;;3.70;;
76136;SDS011;68622;53.128;17.966;2023-05-13T10:43:34;8.10;;;3.00;;
76136;SDS011;68622;53.128;17.966;2023-05-13T10:46:05;7.50;;;2.80;;
76136;SDS011;68622;53.128;17.966;2023-05-13T10:49:16;6.70;;;3.10;;
76136;SDS011;68622;53.128;17.966;2023-05-13T10:51:24;6.90;;;2.90;;
76136;SDS011;68622;53.128;17.966;2023-05-13T10:53:52;7.90;;;3.10;;
76136;SDS011;68622;53.128;17.966;2023-05-13T10:56:21;7.20;;;3.30;;
76136;SDS011;68622;53.128;17.966;2023-05-13T10:59:11;13.70;;;6.00;;
76136;SDS011;68622;53.128;17.966;2023-05-13T11:01:38;8.40;;;3.10;;
76136;SDS011;68622;53.128;17.966;2023-05-13T11:04:11;7.00;;;3.50;;
76136;SDS011;68622;53.128;17.966;2023-05-13T11:06:41;8.20;;;2.90;;
76136;SDS011;68622;53.128;17.966;2023-05-13T11:09:28;9.80;;;3.50;;
76136;SDS011;68622;53.128;17.966;2023-05-13T11:11:57;7.30;;;3.50;;
76136;SDS011;68622;53.128;17.966;2023-05-13T11:14:25;6.20;;;2.90;;
76136;SDS011;68622;53.128;17.966;2023-05-13T11:19:26;7.60;;;3.00;;
76136;SDS011;68622;53.128;17.966;2023-05-13T11:22:03;8.50;;;3.50;;
76136;SDS011;68622;53.128;17.966;2023-05-13T11:24:33;8.90;;;3.50;;
76136;SDS011;68622;53.128;17.966;2023-05-13T11:27:11;8.40;;;3.20;;
76136;SDS011;68622;53.128;17.966;2023-05-13T11:29:49;9.00;;;3.50;;
76136;SDS011;68622;53.128;17.966;2023-05-13T11:35:32;9.80;;;3.00;;
76136;SDS011;68622;53.128;17.966;2023-05-13T11:37:59;9.50;;;3.30;;
76136;SDS011;68622;53.128;17.966;2023-05-13T11:40:29;11.10;;;3.30;;
76136;SDS011;68622;53.128;17.966;2023-05-13T11:42:57;8.50;;;3.20;;
76136;SDS011;68622;53.128;17.966;2023-05-13T11:45:25;9.70;;;4.80;;
76136;SDS011;68622;53.128;17.966;2023-05-13T11:47:53;9.00;;;3.30;;
76136;SDS011;68622;53.128;17.966;2023-05-13T11:50:22;12.20;;;3.80;;
76136;SDS011;68622;53.128;17.966;2023-05-13T11:52:56;9.50;;;3.30;;
76136;SDS011;68622;53.128;17.966;2023-05-13T11:55:30;6.60;;;3.00;;
76136;SDS011;68622;53.128;17.966;2023-05-13T11:58:00;8.90;;;3.40;;
76136;SDS011;68622;53.128;17.966;2023-05-13T12:00:31;7.40;;;2.90;;
76136;SDS011;68622;53.128;17.966;2023-05-13T12:02:59;6.60;;;2.90;;
76136;SDS011;68622;53.128;17.966;2023-05-13T12:05:34;6.90;;;3.00;;
76136;SDS011;68622;53.128;17.966;2023-05-13T12:08:01;7.00;;;3.20;;
76136;SDS011;68622;53.128;17.966;2023-05-13T12:10:27;8.00;;;3.70;;
76136;SDS011;68622;53.128;17.966;2023-05-13T12:12:54;9.10;;;3.50;;
76136;SDS011;68622;53.128;17.966;2023-05-13T12:15:21;7.90;;;3.10;;
76136;SDS011;68622;53.128;17.966;2023-05-13T12:17:49;6.00;;;3.00;;
76136;SDS011;68622;53.128;17.966;2023-05-13T12:20:22;7.30;;;2.80;;
76136;SDS011;68622;53.128;17.966;2023-05-13T12:22:50;9.20;;;3.10;;
76136;SDS011;68622;53.128;17.966;2023-05-13T12:30:53;10.00;;;3.70;;
76136;SDS011;68622;53.128;17.966;2023-05-13T12:33:23;8.30;;;3.40;;
76136;SDS011;68622;53.128;17.966;2023-05-13T12:35:52;8.20;;;3.10;;
76136;SDS011;68622;53.128;17.966;2023-05-13T12:38:21;11.20;;;3.40;;
76136;SDS011;68622;53.128;17.966;2023-05-13T12:40:49;5.80;;;2.60;;
76136;SDS011;68622;53.128;17.966;2023-05-13T12:43:18;8.40;;;3.40;;
76136;SDS011;68622;53.128;17.966;2023-05-13T12:45:46;10.00;;;3.00;;
76136;SDS011;68622;53.128;17.966;2023-05-13T12:48:21;6.20;;;2.80;;
76136;SDS011;68622;53.128;17.966;2023-05-13T12:50:48;7.70;;;2.70;;
76136;SDS011;68622;53.128;17.966;2023-05-13T12:53:15;10.20;;;3.60;;
76136;SDS011;68622;53.128;17.966;2023-05-13T12:55:41;6.30;;;2.70;;
76136;SDS011;68622;53.128;17.966;2023-05-13T12:58:08;9.40;;;3.00;;
76136;SDS011;68622;53.128;17.966;2023-05-13T13:00:38;10.00;;;3.40;;
76136;SDS011;68622;53.128;17.966;2023-05-13T13:03:05;10.30;;;3.40;;
76136;SDS011;68622;53.128;17.966;2023-05-13T13:05:32;8.70;;;3.80;;
76136;SDS011;68622;53.128;17.966;2023-05-13T13:07:59;8.30;;;3.10;;
76136;SDS011;68622;53.128;17.966;2023-05-13T13:10:30;8.60;;;3.10;;
76136;SDS011;68622;53.128;17.966;2023-05-13T13:12:57;9.30;;;2.70;;
76136;SDS011;68622;53.128;17.966;2023-05-13T13:15:23;6.10;;;3.00;;
76136;SDS011;68622;53.128;17.966;2023-05-13T13:17:50;7.10;;;2.60;;
76136;SDS011;68622;53.128;17.966;2023-05-13T13:20:16;8.50;;;2.70;;
76136;SDS011;68622;53.128;17.966;2023-05-13T13:22:43;8.50;;;3.20;;
76136;SDS011;68622;53.128;17.966;2023-05-13T13:25:10;8.20;;;3.20;;
76136;SDS011;68622;53.128;17.966;2023-05-13T13:27:36;8.10;;;2.90;;
76136;SDS011;68622;53.128;17.966;2023-05-13T13:30:03;7.40;;;3.00;;
76136;SDS011;68622;53.128;17.966;2023-05-13T13:32:30;10.40;;;3.30;;
76136;SDS011;68622;53.128;17.966;2023-05-13T13:35:00;6.10;;;2.40;;
76136;SDS011;68622;53.128;17.966;2023-05-13T13:37:28;7.80;;;2.60;;
76136;SDS011;68622;53.128;17.966;2023-05-13T13:39:55;6.70;;;2.80;;
76136;SDS011;68622;53.128;17.966;2023-05-13T13:42:22;7.40;;;3.30;;
76136;SDS011;68622;53.128;17.966;2023-05-13T13:44:48;6.80;;;2.30;;
76136;SDS011;68622;53.128;17.966;2023-05-13T13:47:15;9.70;;;2.40;;
76136;SDS011;68622;53.128;17.966;2023-05-13T13:49:42;8.20;;;2.80;;
76136;SDS011;68622;53.128;17.966;2023-05-13T13:52:08;8.60;;;2.60;;
76136;SDS011;68622;53.128;17.966;2023-05-13T13:54:35;12.10;;;2.60;;
76136;SDS011;68622;53.128;17.966;2023-05-13T13:57:02;12.10;;;2.60;;
76136;SDS011;68622;53.128;17.966;2023-05-13T13:59:29;4.40;;;1.70;;
76136;SDS011;68622;53.128;17.966;2023-05-13T14:01:55;7.30;;;1.90;;
76136;SDS011;68622;53.128;17.966;2023-05-13T14:04:22;5.00;;;1.60;;
76136;SDS011;68622;53.128;17.966;2023-05-13T14:06:52;7.20;;;2.00;;
76136;SDS011;68622;53.128;17.966;2023-05-13T14:09:20;7.00;;;1.80;;
76136;SDS011;68622;53.128;17.966;2023-05-13T14:11:47;6.40;;;1.50;;
76136;SDS011;68622;53.128;17.966;2023-05-13T14:14:14;4.80;;;1.70;;
76136;SDS011;68622;53.128;17.966;2023-05-13T14:16:40;4.50;;;1.80;;
76136;SDS011;68622;53.128;17.966;2023-05-13T14:19:07;5.30;;;2.20;;
76136;SDS011;68622;53.128;17.966;2023-05-13T14:21:35;5.70;;;2.10;;
76136;SDS011;68622;53.128;17.966;2023-05-13T14:24:02;5.50;;;2.30;;
76136;SDS011;68622;53.128;17.966;2023-05-13T14:26:29;7.20;;;2.30;;
76136;SDS011;68622;53.128;17.966;2023-05-13T14:28:55;4.60;;;2.00;;
76136;SDS011;68622;53.128;17.966;2023-05-13T14:31:22;8.80;;;2.70;;
76136;SDS011;68622;53.128;17.966;2023-05-13T14:33:49;6.60;;;2.40;;
76136;SDS011;68622;53.128;17.966;2023-05-13T14:36:16;6.10;;;2.40;;
76136;SDS011;68622;53.128;17.966;2023-05-13T14:38:45;10.00;;;2.70;;
76136;SDS011;68622;53.128;17.966;2023-05-13T14:41:12;8.30;;;2.60;;
76136;SDS011;68622;53.128;17.966;2023-05-13T14:43:45;7.20;;;2.90;;
76136;SDS011;68622;53.128;17.966;2023-05-13T14:46:12;7.80;;;2.90;;
76136;SDS011;68622;53.128;17.966;2023-05-13T14:48:39;7.70;;;2.90;;
76136;SDS011;68622;53.128;17.966;2023-05-13T14:51:06;8.60;;;2.60;;
76136;SDS011;68622;53.128;17.966;2023-05-13T14:53:32;6.40;;;2.40;;
76136;SDS011;68622;53.128;17.966;2023-05-13T14:55:59;6.20;;;2.40;;
76136;SDS011;68622;53.128;17.966;2023-05-13T14:58:26;6.20;;;2.70;;
76136;SDS011;68622;53.128;17.966;2023-05-13T15:00:52;6.30;;;2.10;;